Time;durP1;ratioP1;P1;durP2;ratioP2;P2;SDS_P1;SDS_P2;PMS_P1;PMS_P2;Temp;Humidity;BMP_temperature;BMP_pressure;BME280_temperature;BME280_humidity;BME280_pressure;Samples;Min_cycle;Max_cycle;Signal;HPM_P1;HPM_P2
2022/09/11 00:02:28;;;;;;;1.52;0.40;;;20.30;99.90;;;;;;4990122;28;20036;-78
2022/09/11 00:05:52;;;;;;;1.00;0.80;;;20.30;99.90;;;;;;4990430;28;20073;-78
2022/09/11 00:07:56;;;;;;;0.57;0.30;;;20.30;99.90;;;;;;4984785;28;20050;-78
2022/09/11 00:11:01;;;;;;;3.30;0.60;;;20.30;99.90;;;;;;4994243;28;20042;-79
2022/09/11 00:21:04;;;;;;;0.70;0.70;;;20.30;99.90;;;;;;4877922;29;20058;-79
2022/09/11 00:27:00;;;;;;;0.73;0.65;;;20.30;99.90;;;;;;4762302;30;20107;-78
2022/09/11 00:29:53;;;;;;;0.50;0.50;;;20.20;99.90;;;;;;4761530;30;20046;-79
2022/09/11 00:33:10;;;;;;;1.42;1.15;;;20.20;99.90;;;;;;4761778;30;20568;-78
2022/09/11 00:36:16;;;;;;;9.10;0.68;;;20.20;99.90;;;;;;4837936;29;20086;-79
2022/09/11 00:45:25;;;;;;;3.25;0.65;;;20.30;99.90;;;;;;4936238;29;20171;-77
2022/09/11 00:54:57;;;;;;;2.28;0.50;;;20.30;99.90;;;;;;4884099;29;20048;-78
2022/09/11 00:58:06;;;;;;;1.23;0.98;;;20.30;99.90;;;;;;4897161;29;20071;-78
2022/09/11 01:11:18;;;;;;;3.88;0.98;;;20.30;99.90;;;;;;4869271;29;20180;-78
2022/09/11 01:21:01;;;;;;;0.85;0.63;;;20.40;99.90;;;;;;4862777;29;20046;-78
2022/09/11 01:24:18;;;;;;;;;;;;;;;;;;;;;
2022/09/11 01:27:30;;;;;;;1.58;0.60;;;20.50;99.90;;;;;;4822433;29;20111;-79
2022/09/11 01:37:53;;;;;;;3.70;0.53;;;20.60;99.90;;;;;;4863387;29;20029;-78
2022/09/11 01:41:32;;;;;;;2.58;0.50;;;20.60;99.90;;;;;;4863932;29;20278;-80
2022/09/11 01:43:57;;;;;;;2.17;0.43;;;20.50;99.90;;;;;;4855853;29;20056;-79
2022/09/11 01:46:46;;;;;;;0.80;0.80;;;20.40;99.90;;;;;;4909823;28;20041;-78
2022/09/11 01:49:17;;;;;;;0.30;0.30;;;20.40;99.90;;;;;;4988942;28;20488;-78
2022/09/11 01:51:47;;;;;;;2.80;0.73;;;20.30;99.90;;;;;;4989179;28;20077;-78
2022/09/11 01:54:22;;;;;;;1.40;0.50;;;20.30;99.90;;;;;;4969343;28;20511;-79
2022/09/11 01:57:30;;;;;;;2.28;0.75;;;20.40;99.90;;;;;;4988799;28;20036;-78
2022/09/11 02:00:12;;;;;;;1.35;0.70;;;20.40;99.90;;;;;;4977504;28;20046;-78
2022/09/11 02:06:33;;;;;;;0.57;0.57;;;20.40;99.90;;;;;;4988796;28;20096;-79
2022/09/11 02:13:24;;;;;;;1.10;0.57;;;20.30;99.90;;;;;;4985784;28;20037;-78
2022/09/11 02:16:10;;;;;;;;;;;20.30;99.90;;;;;;4972250;28;20031;-78
2022/09/11 02:18:54;;;;;;;1.02;0.52;;;20.30;99.90;;;;;;4985382;28;19914;-77
2022/09/11 02:21:30;;;;;;;4.20;0.55;;;20.20;99.90;;;;;;4975581;28;20054;-78
2022/09/11 02:24:00;;;;;;;0.50;0.50;;;20.30;99.90;;;;;;4975457;28;20060;-78
2022/09/11 02:26:30;;;;;;;0.77;0.75;;;20.20;99.90;;;;;;4986233;28;20138;-78
2022/09/11 02:29:33;;;;;;;2.00;0.90;;;20.20;99.90;;;;;;4965781;28;20030;-77
2022/09/11 02:32:24;;;;;;;2.47;0.98;;;20.20;99.90;;;;;;4965867;28;20779;-78
2022/09/11 02:35:02;;;;;;;0.65;0.50;;;20.00;99.90;;;;;;4952418;28;20046;-77
2022/09/11 02:38:05;;;;;;;1.23;0.68;;;19.90;99.90;;;;;;4982901;28;20109;-79
2022/09/11 02:41:20;;;;;;;3.15;0.73;;;20.00;99.90;;;;;;4976446;28;20531;-77
2022/09/11 02:44:33;;;;;;;1.13;0.60;;;20.10;99.90;;;;;;4970096;28;20034;-78
2022/09/11 02:47:32;;;;;;;2.95;0.60;;;20.20;99.90;;;;;;4986968;28;20026;-77
2022/09/11 02:50:30;;;;;;;0.68;0.68;;;20.30;99.90;;;;;;4975699;28;20022;-77
2022/09/11 02:53:20;;;;;;;0.40;0.40;;;20.20;99.90;;;;;;4958794;28;20093;-77
2022/09/11 02:56:17;;;;;;;4.85;0.40;;;20.20;99.90;;;;;;4967502;28;20052;-77
2022/09/11 02:59:04;;;;;;;1.58;0.63;;;20.20;99.90;;;;;;4976330;28;20063;-78
2022/09/11 03:08:23;;;;;;;1.25;0.70;;;20.00;99.90;;;;;;4957288;28;20542;-77
2022/09/11 03:14:20;;;;;;;1.02;0.40;;;20.00;99.90;;;;;;4944197;28;20094;-78
2022/09/11 03:19:59;;;;;;;0.93;0.60;;;20.00;99.90;;;;;;4893726;28;20050;-77
2022/09/11 03:23:16;;;;;;;;;;;;;;;;;;;;;
2022/09/11 03:26:48;;;;;;;5.57;1.10;;;20.20;99.90;;;;;;4984281;28;20480;-78
2022/09/11 03:29:48;;;;;;;2.95;0.52;;;20.20;99.90;;;;;;4988345;28;20054;-78
2022/09/11 03:32:17;;;;;;;0.98;0.68;;;20.30;99.90;;;;;;4987100;28;20076;-78
2022/09/11 03:35:06;;;;;;;3.22;0.88;;;20.20;99.90;;;;;;4968825;28;20026;-78
2022/09/11 03:37:45;;;;;;;0.77;0.40;;;20.20;99.90;;;;;;4898607;29;20033;-78
2022/09/11 03:40:57;;;;;;;;;;;;;;;;;;;;;
2022/09/11 03:43:42;;;;;;;0.80;0.80;;;20.10;99.90;;;;;;4842891;29;20029;-78
2022/09/11 03:46:24;;;;;;;1.48;0.70;;;20.00;99.90;;;;;;4902624;29;20051;-78
2022/09/11 03:52:36;;;;;;;0.50;0.50;;;20.10;99.90;;;;;;4902979;29;20218;-77
2022/09/11 03:55:13;;;;;;;1.13;0.60;;;20.00;99.90;;;;;;4902623;29;20157;-77
2022/09/11 03:57:49;;;;;;;2.13;1.00;;;19.90;99.90;;;;;;4954696;28;20045;-77
2022/09/11 04:00:18;;;;;;;1.42;0.40;;;19.80;99.90;;;;;;4988094;28;20042;-78
2022/09/11 04:02:44;;;;;;;4.03;1.10;;;19.70;99.90;;;;;;4972901;28;20038;-78
2022/09/11 04:05:13;;;;;;;0.65;0.60;;;19.70;99.90;;;;;;4990431;28;20034;-78
2022/09/11 04:08:21;;;;;;;0.98;0.60;;;19.70;99.90;;;;;;4996777;28;20044;-78
2022/09/11 04:11:41;;;;;;;;;;;;;;;;;;;;;
2022/09/11 04:14:18;;;;;;;1.10;0.65;;;19.60;99.90;;;;;;4980346;28;20102;-79
2022/09/11 04:17:07;;;;;;;2.55;0.80;;;19.60;99.90;;;;;;4982868;28;20023;-79
2022/09/11 04:19:36;;;;;;;6.60;1.30;;;19.60;99.90;;;;;;4987814;28;20045;-78
2022/09/11 04:22:11;;;;;;;1.90;0.50;;;19.50;99.90;;;;;;4979268;28;20030;-78
2022/09/11 04:24:40;;;;;;;10.65;1.98;;;19.40;99.90;;;;;;4990395;28;20068;-78
2022/09/11 04:27:11;;;;;;;0.98;0.65;;;19.40;99.90;;;;;;4992020;28;20041;-78
2022/09/11 04:30:08;;;;;;;1.03;0.90;;;19.30;99.90;;;;;;4972516;28;20037;-78
2022/09/11 04:33:30;;;;;;;;;;;;;;;;;;;;;
2022/09/11 04:35:57;;;;;;;3.58;1.48;;;19.40;99.90;;;;;;4990390;28;20144;-78
2022/09/11 04:38:54;;;;;;;0.70;0.60;;;19.30;99.90;;;;;;4990028;28;20026;-77
2022/09/11 04:41:53;;;;;;;;;;;;;;;;;;;;;
2022/09/11 04:44:28;;;;;;;3.17;0.80;;;19.40;99.90;;;;;;4985956;28;20034;-78
2022/09/11 04:46:58;;;;;;;0.60;0.60;;;19.40;99.90;;;;;;4992566;28;20089;-78
2022/09/11 04:49:27;;;;;;;3.70;0.90;;;19.40;99.90;;;;;;4991318;28;20396;-79
2022/09/11 04:52:11;;;;;;;0.65;0.60;;;19.40;99.90;;;;;;4996170;28;20058;-79
2022/09/11 04:54:38;;;;;;;0.60;0.60;;;19.40;99.90;;;;;;4999887;28;20080;-79
2022/09/11 04:57:04;;;;;;;0.57;0.57;;;19.50;99.90;;;;;;4999839;28;20336;-79
2022/09/11 04:59:30;;;;;;;3.25;1.00;;;19.50;99.90;;;;;;4993114;28;20034;-79
2022/09/11 05:01:56;;;;;;;2.88;0.70;;;19.60;99.90;;;;;;4991754;28;20030;-79
2022/09/11 05:04:31;;;;;;;0.50;0.50;;;19.50;99.90;;;;;;4991739;28;20097;-79
2022/09/11 05:07:39;;;;;;;;;;;;;;;;;;;;;
2022/09/11 05:10:05;;;;;;;1.00;0.73;;;19.50;99.90;;;;;;4999459;28;20097;-79
2022/09/11 05:12:37;;;;;;;1.70;0.80;;;19.60;99.90;;;;;;4999104;28;20030;-79
2022/09/11 05:16:01;;;;;;;2.80;0.88;;;19.70;99.90;;;;;;4977335;28;20021;-78
2022/09/11 05:18:30;;;;;;;1.98;0.55;;;19.70;99.90;;;;;;4964104;28;20046;-78
2022/09/11 05:21:07;;;;;;;0.93;0.50;;;19.70;99.90;;;;;;4993713;28;20390;-80
2022/09/11 05:23:43;;;;;;;1.35;0.60;;;19.70;99.90;;;;;;4990028;28;20018;-78
2022/09/11 05:26:17;;;;;;;1.00;0.57;;;19.80;99.90;;;;;;4989707;28;20038;-78
2022/09/11 05:29:12;;;;;;;4.50;1.38;;;19.70;99.90;;;;;;4982812;28;20120;-78
2022/09/11 05:32:05;;;;;;;1.73;0.70;;;19.80;99.90;;;;;;4987899;28;20027;-78
2022/09/11 05:34:31;;;;;;;4.03;0.93;;;19.70;99.90;;;;;;4989690;28;20038;-78
2022/09/11 05:36:57;;;;;;;0.80;0.57;;;19.60;99.90;;;;;;4987114;28;20026;-79
2022/09/11 05:39:29;;;;;;;0.55;0.55;;;19.40;99.90;;;;;;4988400;28;20448;-78
2022/09/11 05:41:55;;;;;;;;;;;19.40;99.90;;;;;;4988386;28;20027;-79
2022/09/11 05:44:24;;;;;;;1.52;0.60;;;19.30;99.90;;;;;;4989106;28;19984;-78
2022/09/11 05:46:50;;;;;;;0.77;0.75;;;19.30;99.90;;;;;;4987124;28;20053;-79
2022/09/11 05:49:16;;;;;;;1.83;0.93;;;19.40;99.90;;;;;;4991756;28;20027;-80
2022/09/11 05:51:51;;;;;;;1.13;0.77;;;19.50;99.90;;;;;;4991938;28;20045;-79
2022/09/11 05:54:17;;;;;;;1.83;0.90;;;19.70;99.90;;;;;;4990371;28;20038;-79
2022/09/11 06:02:49;;;;;;;3.00;0.80;;;19.80;99.90;;;;;;4887235;29;20069;-78
2022/09/11 06:05:19;;;;;;;1.48;0.98;;;19.70;99.90;;;;;;4981091;28;20062;-79
2022/09/11 06:07:45;;;;;;;2.72;0.95;;;19.80;99.90;;;;;;4989721;28;20033;-79
2022/09/11 06:10:23;;;;;;;1.73;1.15;;;19.80;99.90;;;;;;4987445;28;20050;-79
2022/09/11 06:12:59;;;;;;;0.82;0.80;;;19.80;99.90;;;;;;4986040;28;20057;-79
2022/09/11 06:15:43;;;;;;;1.17;1.00;;;19.90;99.90;;;;;;4984816;28;20018;-78
2022/09/11 06:18:09;;;;;;;1.63;1.13;;;19.90;99.90;;;;;;4989068;28;20035;-78
2022/09/11 06:20:40;;;;;;;1.23;1.00;;;20.00;99.90;;;;;;4988518;28;20040;-79
2022/09/11 06:23:09;;;;;;;1.13;1.02;;;20.10;99.90;;;;;;4989734;28;20022;-79
2022/09/11 06:25:35;;;;;;;6.63;1.10;;;20.10;99.90;;;;;;4990056;28;20085;-79
2022/09/11 06:28:02;;;;;;;1.20;0.50;;;20.00;99.90;;;;;;4988010;28;20125;-78
2022/09/11 06:30:28;;;;;;;0.70;0.70;;;20.00;99.90;;;;;;4989618;28;20034;-79
2022/09/11 06:32:55;;;;;;;1.67;0.73;;;20.20;99.90;;;;;;4988113;28;20037;-78
2022/09/11 06:35:27;;;;;;;3.45;1.58;;;20.20;99.90;;;;;;4992183;28;20764;-79
2022/09/11 06:37:54;;;;;;;1.38;0.90;;;20.20;99.90;;;;;;4989816;28;20046;-79
2022/09/11 06:40:33;;;;;;;1.55;1.13;;;20.20;99.90;;;;;;4988743;28;20022;-79
2022/09/11 07:21:44;;;;;;;;;;;;;;;;;;;;;
2022/09/11 07:25:07;;;;;;;1.00;0.85;;;21.20;99.90;;;;;;4868007;29;20045;-80
2022/09/11 07:28:04;;;;;;;;;;;;;;;;;;;;;
2022/09/11 07:30:31;;;;;;;2.10;0.77;;;21.40;99.90;;;;;;4986309;28;20154;-72
2022/09/11 07:33:00;;;;;;;1.27;0.95;;;21.50;99.90;;;;;;4983826;28;20424;-71
2022/09/11 07:35:40;;;;;;;1.83;0.47;;;21.60;99.90;;;;;;4984394;28;20045;-71
2022/09/11 07:41:12;;;;;;;1.80;0.68;;;21.70;99.90;;;;;;4975869;28;20132;-70
2022/09/11 07:43:47;;;;;;;1.80;1.20;;;21.80;99.90;;;;;;4983126;28;20028;-70
2022/09/11 07:46:23;;;;;;;1.75;1.00;;;21.90;99.90;;;;;;4982741;28;20022;-71
2022/09/11 07:48:49;;;;;;;1.00;0.70;;;22.00;99.90;;;;;;4987510;28;20126;-71
2022/09/11 07:51:17;;;;;;;0.55;0.55;;;22.10;99.90;;;;;;4991279;28;20042;-70
2022/09/11 07:53:46;;;;;;;1.27;0.60;;;22.20;99.90;;;;;;4991780;28;20469;-71
2022/09/11 07:56:18;;;;;;;0.95;0.55;;;22.50;99.90;;;;;;4993315;28;20060;-72
2022/09/11 07:58:45;;;;;;;3.78;0.93;;;22.40;99.90;;;;;;4991986;28;20029;-71
2022/09/11 08:01:15;;;;;;;41.00;3.90;;;22.30;99.90;;;;;;4993740;28;20365;-71
2022/09/11 08:03:42;;;;;;;16.07;3.00;;;22.10;99.90;;;;;;4993156;28;20086;-71
2022/09/11 08:06:18;;;;;;;3.03;1.42;;;22.20;99.90;;;;;;4993259;28;20162;-71
2022/09/11 08:08:50;;;;;;;2.50;1.08;;;22.10;99.90;;;;;;4991380;28;20034;-73
2022/09/11 08:11:16;;;;;;;10.77;1.65;;;22.10;99.90;;;;;;4991841;28;20034;-71
2022/09/11 08:14:06;;;;;;;7.72;1.10;;;22.00;99.90;;;;;;4993904;28;20029;-71
2022/09/11 08:16:34;;;;;;;7.65;1.23;;;22.00;99.90;;;;;;5000883;28;20033;-71
2022/09/11 08:19:34;;;;;;;11.00;1.40;;;22.00;99.90;;;;;;4997019;28;20018;-71
2022/09/11 08:22:00;;;;;;;4.10;1.27;;;22.00;99.90;;;;;;4995670;28;20075;-70
2022/09/11 08:24:43;;;;;;;5.78;1.13;;;22.10;99.90;;;;;;4996757;28;20502;-72
2022/09/11 08:27:15;;;;;;;2.47;1.23;;;22.20;99.90;;;;;;4996736;28;20026;-71
2022/09/11 08:29:41;;;;;;;5.10;1.20;;;22.10;99.90;;;;;;4995049;28;20480;-71
2022/09/11 08:32:07;;;;;;;4.32;0.95;;;22.20;99.90;;;;;;4996032;28;20085;-71
2022/09/11 08:34:37;;;;;;;10.10;1.48;;;22.20;99.90;;;;;;4995923;28;20057;-73
2022/09/11 08:37:02;;;;;;;2.63;0.82;;;22.30;99.90;;;;;;4996163;28;20472;-70
2022/09/11 08:39:37;;;;;;;4.22;0.88;;;22.40;99.90;;;;;;4994693;28;20041;-71
2022/09/11 08:42:17;;;;;;;7.63;1.40;;;22.40;99.90;;;;;;4995852;28;20133;-71
2022/09/11 08:44:48;;;;;;;7.88;1.35;;;22.40;99.90;;;;;;4996114;28;20026;-71
2022/09/11 08:47:23;;;;;;;0.70;0.65;;;22.50;99.90;;;;;;4996049;28;20050;-70
2022/09/11 08:50:17;;;;;;;2.35;0.80;;;22.40;99.90;;;;;;4994940;28;20457;-70
2022/09/11 08:52:43;;;;;;;3.47;0.85;;;22.40;99.90;;;;;;4995570;28;20036;-70
2022/09/11 08:55:23;;;;;;;1.98;1.42;;;22.40;99.90;;;;;;4994288;28;20129;-71
2022/09/11 08:58:05;;;;;;;1.48;0.68;;;22.40;99.90;;;;;;4977555;28;20117;-70
2022/09/11 09:00:49;;;;;;;2.40;0.65;;;22.30;99.90;;;;;;4994588;28;20034;-71
2022/09/11 09:03:35;;;;;;;1.83;0.82;;;22.30;99.90;;;;;;4978274;28;20018;-71
2022/09/11 09:06:48;;;;;;;;;;;;;;;;;;;;;
2022/09/11 09:09:54;;;;;;;0.47;0.47;;;22.40;99.90;;;;;;4993706;28;20042;-70
2022/09/11 09:12:52;;;;;;;0.70;0.63;;;22.40;99.90;;;;;;4995425;28;20022;-71
2022/09/11 09:15:55;;;;;;;;;;;;;;;;;;;;;
2022/09/11 09:18:53;;;;;;;3.60;0.90;;;22.30;99.90;;;;;;4994245;28;20038;-71
2022/09/11 09:22:19;;;;;;;1.98;0.85;;;22.40;99.90;;;;;;4988200;28;20018;-71
2022/09/11 09:25:01;;;;;;;3.45;0.90;;;22.30;99.90;;;;;;4934085;29;20024;-71
2022/09/11 09:27:44;;;;;;;2.38;0.95;;;22.30;99.90;;;;;;4934376;29;20064;-73
2022/09/11 09:30:33;;;;;;;3.60;0.52;;;22.40;99.90;;;;;;4984289;28;20480;-72
2022/09/11 09:33:07;;;;;;;1.25;0.65;;;22.50;99.90;;;;;;4995147;28;20269;-71
2022/09/11 09:35:44;;;;;;;23.33;1.25;;;22.60;99.90;;;;;;4994959;28;20026;-71
2022/09/11 09:38:20;;;;;;;1.08;0.70;;;22.70;99.90;;;;;;4995003;28;20551;-72
2022/09/11 09:41:15;;;;;;;2.35;1.10;;;22.70;99.90;;;;;;4974542;28;20121;-71
2022/09/11 09:44:05;;;;;;;0.82;0.80;;;22.80;99.90;;;;;;4990061;28;20098;-71
2022/09/11 09:46:42;;;;;;;0.95;0.60;;;22.90;99.90;;;;;;4994747;28;20053;-71
2022/09/11 09:49:17;;;;;;;1.00;0.35;;;22.90;99.90;;;;;;4995216;28;20027;-71
2022/09/11 09:51:43;;;;;;;2.60;0.60;;;23.10;99.90;;;;;;4994012;28;20041;-71
2022/09/11 09:54:17;;;;;;;0.80;0.60;;;23.00;99.90;;;;;;4993258;28;20030;-71
2022/09/11 09:56:52;;;;;;;2.47;1.05;;;23.10;99.90;;;;;;4994734;28;20026;-70
2022/09/11 09:59:25;;;;;;;3.30;0.63;;;23.00;99.90;;;;;;4994875;28;20022;-71
2022/09/11 10:01:53;;;;;;;0.30;0.30;;;23.00;99.90;;;;;;4993901;28;20084;-71
2022/09/11 10:04:28;;;;;;;1.00;0.65;;;23.00;99.90;;;;;;4994421;28;20499;-71
2022/09/11 10:07:07;;;;;;;0.88;0.50;;;22.90;99.90;;;;;;4995217;28;20018;-71
2022/09/11 10:09:33;;;;;;;0.38;0.30;;;23.00;99.90;;;;;;4994422;28;20424;-71
2022/09/11 10:12:06;;;;;;;1.60;0.40;;;23.10;99.90;;;;;;4992497;28;20110;-71
2022/09/11 10:14:41;;;;;;;0.90;0.40;;;23.20;99.90;;;;;;4994179;28;20038;-70
2022/09/11 10:17:19;;;;;;;0.35;0.35;;;23.20;99.90;;;;;;4994549;28;20106;-72
2022/09/11 10:19:45;;;;;;;0.90;0.80;;;23.20;99.90;;;;;;4994483;28;20053;-71
2022/09/11 10:22:21;;;;;;;1.23;0.70;;;23.20;99.90;;;;;;4991528;28;20425;-72
2022/09/11 10:25:14;;;;;;;0.70;0.45;;;23.20;99.90;;;;;;4994139;28;20499;-71
2022/09/11 10:28:13;;;;;;;0.88;0.80;;;23.20;99.90;;;;;;4993941;28;20037;-71
2022/09/11 10:34:18;;;;;;;0.63;0.57;;;23.20;99.90;;;;;;4988347;28;20084;-71
2022/09/11 10:44:26;;;;;;;;;;;;;;;;;;;;;
2022/09/11 10:51:11;;;;;;;3.65;0.70;;;23.10;99.90;;;;;;4841495;29;20123;-71
2022/09/11 10:57:53;;;;;;;0.45;0.45;;;23.10;99.90;;;;;;4858004;29;20053;-71
2022/09/11 11:01:09;;;;;;;3.03;0.60;;;23.20;99.90;;;;;;4857769;29;20090;-71
2022/09/11 11:04:27;;;;;;;1.13;0.60;;;23.20;99.90;;;;;;4927474;29;20044;-71
2022/09/11 11:07:58;;;;;;;0.50;0.40;;;23.10;99.90;;;;;;4876657;29;20040;-71
2022/09/11 11:11:06;;;;;;;2.17;0.65;;;23.10;99.90;;;;;;4875241;29;20508;-71
2022/09/11 11:14:22;;;;;;;;;;;;;;;;;;;;;
2022/09/11 11:17:23;;;;;;;;;;;;;;;;;;;;;
2022/09/11 11:20:49;;;;;;;0.50;0.50;;;23.20;99.90;;;;;;4993541;28;20030;-71
2022/09/11 11:23:52;;;;;;;0.88;0.65;;;23.30;99.90;;;;;;4927988;29;20036;-70
2022/09/11 11:30:18;;;;;;;0.65;0.40;;;23.50;99.90;;;;;;4933765;29;20083;-70
2022/09/11 11:33:31;;;;;;;1.33;0.32;;;23.60;99.90;;;;;;4931741;29;20412;-70
2022/09/11 11:36:06;;;;;;;0.50;0.38;;;23.60;99.90;;;;;;4973724;28;20048;-71
2022/09/11 11:39:09;;;;;;;0.35;0.20;;;23.70;99.90;;;;;;4973792;28;20038;-71
2022/09/11 11:42:18;;;;;;;;;;;;;;;;;;;;;
2022/09/11 11:45:10;;;;;;;1.90;0.40;;;23.70;99.90;;;;;;4958885;28;20039;-71
2022/09/11 11:47:41;;;;;;;0.90;0.75;;;23.50;99.90;;;;;;4994213;28;20042;-71
2022/09/11 11:50:44;;;;;;;2.93;0.50;;;23.50;99.90;;;;;;4997616;28;20026;-71
2022/09/11 11:53:11;;;;;;;1.40;0.73;;;23.50;99.90;;;;;;4996646;28;20030;-71
2022/09/11 11:56:33;;;;;;;1.42;0.55;;;23.50;99.90;;;;;;4996479;28;20044;-71
2022/09/11 11:59:46;;;;;;;3.58;0.75;;;23.60;99.90;;;;;;4942543;28;20416;-71
2022/09/11 12:03:16;;;;;;;;;;;;;;;;;;;;;
2022/09/11 12:06:48;;;;;;;0.57;0.57;;;23.70;99.90;;;;;;4935700;29;21040;-71
2022/09/11 12:09:16;;;;;;;2.88;0.73;;;23.70;99.90;;;;;;4955723;28;20039;-71
2022/09/11 12:12:41;;;;;;;0.77;0.60;;;23.70;99.90;;;;;;4995248;28;20023;-71
2022/09/11 12:15:22;;;;;;;0.20;0.20;;;23.70;99.90;;;;;;4927186;29;20596;-71
2022/09/11 12:22:14;;;;;;;3.50;0.47;;;23.60;99.90;;;;;;4979574;28;20678;-71
2022/09/11 12:28:56;;;;;;;0.63;0.38;;;23.70;99.90;;;;;;4974572;28;20034;-71
2022/09/11 12:32:05;;;;;;;1.20;0.88;;;23.70;99.90;;;;;;4979426;28;20046;-71
2022/09/11 12:35:15;;;;;;;1.35;0.35;;;23.80;99.90;;;;;;4973075;28;20085;-71
2022/09/11 12:38:13;;;;;;;1.10;0.30;;;23.80;99.90;;;;;;4996398;28;20336;-71
2022/09/11 12:40:47;;;;;;;1.13;0.50;;;23.80;99.90;;;;;;4934347;29;20043;-71
2022/09/11 12:47:00;;;;;;;0.45;0.40;;;23.80;99.90;;;;;;4955099;29;20452;-71
2022/09/11 12:50:10;;;;;;;0.90;0.30;;;23.90;99.90;;;;;;4954660;29;20031;-70
2022/09/11 12:53:15;;;;;;;1.02;0.43;;;23.80;99.90;;;;;;4955359;29;20028;-70
2022/09/11 12:56:20;;;;;;;2.08;0.70;;;23.90;99.90;;;;;;4946630;29;20043;-71
2022/09/11 12:59:28;;;;;;;0.17;0.17;;;24.10;99.90;;;;;;4954065;28;20035;-71
2022/09/11 13:02:12;;;;;;;2.28;0.43;;;24.00;99.90;;;;;;4934347;29;20094;-71
2022/09/11 13:07:59;;;;;;;0.50;0.40;;;24.00;99.90;;;;;;4973204;28;20407;-71
2022/09/11 13:11:03;;;;;;;5.30;1.70;;;24.00;99.90;;;;;;4994504;28;20093;-70
2022/09/11 13:14:19;;;;;;;0.40;0.30;;;23.90;99.90;;;;;;4990046;28;20037;-70
2022/09/11 13:17:24;;;;;;;0.68;0.45;;;24.00;99.90;;;;;;4992735;28;20026;-71
2022/09/11 13:19:55;;;;;;;1.70;0.75;;;24.20;99.90;;;;;;4978448;28;20109;-71
2022/09/11 13:26:00;;;;;;;1.77;0.75;;;24.20;99.90;;;;;;4977071;28;20030;-70
2022/09/11 13:28:31;;;;;;;0.65;0.40;;;24.10;99.90;;;;;;4977479;28;20118;-73
2022/09/11 13:31:44;;;;;;;;;;;;;;;;;;;;;
2022/09/11 13:34:22;;;;;;;2.35;0.80;;;24.00;99.90;;;;;;4976258;28;20289;-71
2022/09/11 13:37:00;;;;;;;0.80;0.50;;;24.20;99.90;;;;;;4996981;28;20449;-71
2022/09/11 13:39:50;;;;;;;1.67;1.30;;;24.20;99.90;;;;;;4995573;28;20034;-71
2022/09/11 13:46:20;;;;;;;0.50;0.50;;;24.40;99.90;;;;;;4989453;28;20038;-71
2022/09/11 13:55:49;;;;;;;0.90;0.30;;;24.30;99.90;;;;;;4949919;29;20392;-71
2022/09/11 14:03:01;;;;;;;;;;;;;;;;;;;;;
2022/09/11 14:16:40;;;;;;;;;;;;;;;;;;;;;
2022/09/11 14:19:53;;;;;;;1.05;0.35;;;24.30;99.90;;;;;;4789666;29;20051;-72
2022/09/11 14:23:37;;;;;;;0.60;0.50;;;24.40;99.90;;;;;;4878191;29;20036;-71
2022/09/11 14:25:46;;;;;;;3.22;0.50;;;24.50;99.90;;;;;;4910192;29;20039;-71
2022/09/11 14:28:59;;;;;;;2.35;0.65;;;24.40;99.90;;;;;;4982869;28;20045;-71
2022/09/11 14:31:57;;;;;;;0.47;0.43;;;24.40;99.90;;;;;;4976563;28;20026;-70
2022/09/11 14:34:28;;;;;;;1.02;0.77;;;24.40;99.90;;;;;;4975884;28;20034;-70
2022/09/11 14:37:15;;;;;;;0.30;0.30;;;24.40;99.90;;;;;;4976113;28;20026;-71
2022/09/11 14:40:21;;;;;;;7.18;1.05;;;24.60;99.90;;;;;;4993429;28;20105;-72
2022/09/11 14:42:47;;;;;;;3.40;1.30;;;24.60;99.90;;;;;;4992667;28;20019;-71
2022/09/11 14:45:23;;;;;;;1.42;0.30;;;24.50;99.90;;;;;;4994168;28;20026;-71
2022/09/11 14:48:21;;;;;;;1.38;0.60;;;24.40;99.90;;;;;;4993932;28;20131;-71
2022/09/11 14:50:47;;;;;;;5.03;0.50;;;24.40;99.90;;;;;;4982036;28;20045;-72
2022/09/11 14:53:58;;;;;;;2.03;0.52;;;24.50;99.90;;;;;;4992031;28;20424;-71
2022/09/11 14:56:45;;;;;;;1.60;0.63;;;24.60;99.90;;;;;;4944704;29;20481;-73
2022/09/11 14:59:16;;;;;;;3.75;0.82;;;24.60;99.90;;;;;;4952028;28;20050;-72
2022/09/11 15:02:10;;;;;;;1.77;0.50;;;24.60;99.90;;;;;;4952376;28;20024;-70
2022/09/11 15:05:18;;;;;;;1.38;0.55;;;24.60;99.90;;;;;;4947581;29;20281;-71
2022/09/11 15:08:24;;;;;;;3.95;0.60;;;24.60;99.90;;;;;;4923299;28;20038;-71
2022/09/11 15:11:22;;;;;;;;;;;;;;;;;;;;;
2022/09/11 15:14:00;;;;;;;0.52;0.43;;;24.50;99.90;;;;;;4892619;29;20051;-72
2022/09/11 15:17:14;;;;;;;5.90;0.65;;;24.40;99.90;;;;;;4949249;29;20083;-72
2022/09/11 15:19:52;;;;;;;1.85;0.60;;;24.40;99.90;;;;;;4950084;28;20035;-72
2022/09/11 15:23:00;;;;;;;;;;;;;;;;;;;;;
2022/09/11 15:25:26;;;;;;;5.07;0.55;;;24.40;99.90;;;;;;4935364;29;20543;-72
2022/09/11 15:28:36;;;;;;;1.63;0.73;;;24.40;99.90;;;;;;4955680;28;20038;-71
2022/09/11 15:31:34;;;;;;;2.30;1.00;;;24.40;99.90;;;;;;4987732;28;20114;-72
2022/09/11 15:34:28;;;;;;;1.23;0.85;;;24.40;99.90;;;;;;4975149;28;20038;-71
2022/09/11 15:37:07;;;;;;;1.35;0.50;;;24.50;99.90;;;;;;4997668;28;20050;-72
2022/09/11 15:39:40;;;;;;;1.73;0.50;;;24.50;99.90;;;;;;4956052;29;20044;-72
2022/09/11 15:45:50;;;;;;;1.98;0.40;;;24.40;99.90;;;;;;4955433;29;20078;-71
2022/09/11 15:48:55;;;;;;;1.27;0.40;;;24.30;99.90;;;;;;4961660;28;20487;-71
2022/09/11 15:52:05;;;;;;;0.50;0.50;;;24.40;99.90;;;;;;4996416;28;20057;-72
2022/09/11 16:01:53;;;;;;;1.80;0.43;;;24.20;99.90;;;;;;4936935;29;20060;-71
2022/09/11 16:04:20;;;;;;;1.02;0.60;;;24.20;99.90;;;;;;4931308;29;20067;-71
2022/09/11 16:07:33;;;;;;;3.90;0.50;;;24.10;99.90;;;;;;4929862;28;20480;-71
2022/09/11 16:13:24;;;;;;;3.53;0.82;;;24.10;99.90;;;;;;4948417;29;20126;-71
2022/09/11 16:16:09;;;;;;;1.20;0.38;;;24.10;99.90;;;;;;4955656;29;20031;-72
2022/09/11 16:18:44;;;;;;;1.55;0.50;;;24.10;99.90;;;;;;4980389;28;20145;-72
2022/09/11 16:21:17;;;;;;;1.15;0.82;;;24.10;99.90;;;;;;4995877;28;20031;-72
2022/09/11 16:23:43;;;;;;;4.30;0.88;;;24.20;99.90;;;;;;4993596;28;20058;-72
2022/09/11 16:26:22;;;;;;;;;;;;;;;;;;;;;
2022/09/11 16:29:10;;;;;;;4.72;1.90;;;24.10;99.90;;;;;;4996544;28;20033;-71
2022/09/11 16:31:36;;;;;;;2.28;0.63;;;24.10;99.90;;;;;;4996179;28;20026;-72
2022/09/11 16:34:13;;;;;;;3.08;0.65;;;24.10;99.90;;;;;;4996007;28;20483;-72
2022/09/11 16:36:42;;;;;;;4.22;0.80;;;24.00;99.90;;;;;;4996877;28;20490;-72
2022/09/11 16:39:40;;;;;;;;;;;;;;;;;;;;;
2022/09/11 16:42:19;;;;;;;1.20;1.10;;;23.90;99.90;;;;;;4995269;28;20522;-71
2022/09/11 16:44:49;;;;;;;1.00;0.50;;;23.90;99.90;;;;;;4995739;28;20081;-71
2022/09/11 16:47:24;;;;;;;3.22;0.98;;;23.80;99.90;;;;;;4997669;28;20142;-71
2022/09/11 16:49:52;;;;;;;1.73;0.77;;;23.80;99.90;;;;;;4997388;28;20026;-71
2022/09/11 16:52:21;;;;;;;1.08;0.80;;;23.70;99.90;;;;;;4995421;28;20393;-71
2022/09/11 16:55:08;;;;;;;2.58;1.00;;;23.60;99.90;;;;;;4995440;28;20078;-71
2022/09/11 16:58:02;;;;;;;3.70;0.90;;;23.50;99.90;;;;;;4954355;28;20300;-72
2022/09/11 17:00:28;;;;;;;1.25;0.73;;;23.50;99.90;;;;;;4954467;28;20043;-73
2022/09/11 17:03:29;;;;;;;0.98;0.73;;;23.50;99.90;;;;;;4946429;28;20370;-72
2022/09/11 17:06:05;;;;;;;2.60;1.08;;;23.40;99.90;;;;;;4957786;28;20136;-71
2022/09/11 17:08:32;;;;;;;4.57;1.02;;;23.30;99.90;;;;;;4995813;28;20042;-72
2022/09/11 17:14:24;;;;;;;2.50;0.88;;;23.10;99.90;;;;;;4962911;28;20177;-71
2022/09/11 17:17:06;;;;;;;1.85;1.00;;;23.00;99.90;;;;;;4996738;28;20027;-71
2022/09/11 17:20:03;;;;;;;0.88;0.40;;;22.90;99.90;;;;;;4996473;28;20026;-72
2022/09/11 17:22:40;;;;;;;3.45;0.98;;;22.70;99.90;;;;;;4994440;28;20034;-71
2022/09/11 17:25:06;;;;;;;1.23;1.10;;;22.60;99.90;;;;;;4994830;28;20034;-72
2022/09/11 17:31:39;;;;;;;1.83;1.30;;;22.40;99.90;;;;;;4953991;29;20500;-71
2022/09/11 17:34:41;;;;;;;2.83;1.77;;;22.40;99.90;;;;;;4956513;28;20038;-72
2022/09/11 17:37:49;;;;;;;;;;;;;;;;;;;;;
2022/09/11 17:40:26;;;;;;;3.03;1.50;;;22.30;99.90;;;;;;4934524;29;20050;-71
2022/09/11 17:42:52;;;;;;;3.00;1.45;;;22.20;99.90;;;;;;4933677;29;20042;-72
2022/09/11 17:45:24;;;;;;;4.20;1.20;;;22.10;99.90;;;;;;4933846;29;20502;-73
2022/09/11 17:47:51;;;;;;;3.63;1.73;;;22.10;99.90;;;;;;4934695;29;20031;-72
2022/09/11 17:50:26;;;;;;;4.75;1.13;;;22.10;99.90;;;;;;4934947;29;20024;-72
2022/09/11 17:56:33;;;;;;;;;;;;;;;;;;;;;
2022/09/11 18:02:58;;;;;;;4.45;1.92;;;21.90;99.90;;;;;;4932959;29;21212;-73
2022/09/11 18:06:17;;;;;;;2.30;2.10;;;21.90;99.90;;;;;;4937335;29;20039;-78
2022/09/11 18:08:50;;;;;;;6.13;2.63;;;22.10;99.90;;;;;;4913257;29;20043;-78
2022/09/11 18:11:19;;;;;;;3.67;1.45;;;22.30;99.90;;;;;;4984676;28;20037;-78
2022/09/11 18:13:45;;;;;;;2.13;1.90;;;22.40;99.90;;;;;;4995084;28;20051;-78
2022/09/11 18:18:58;;;;;;;6.05;1.73;;;22.30;99.90;;;;;;4997174;28;20118;-78
2022/09/11 18:21:28;;;;;;;3.88;1.50;;;22.20;99.90;;;;;;4986006;28;20066;-78
2022/09/11 18:24:18;;;;;;;2.80;1.77;;;22.10;99.90;;;;;;4981923;28;20443;-78
2022/09/11 18:26:49;;;;;;;3.50;1.92;;;22.00;99.90;;;;;;4994336;28;20022;-79
2022/09/11 18:29:19;;;;;;;5.15;2.00;;;21.90;99.90;;;;;;4981811;28;20048;-78